Time;durP1;ratioP1;P1;durP2;ratioP2;P2;SDS_P1;SDS_P2;PMS_P1;PMS_P2;Temp;Humidity;BMP_temperature;BMP_pressure;BME280_temperature;BME280_humidity;BME280_pressure;Samples;Min_cycle;Max_cycle;Signal;HPM_P1;HPM_P2
2022/08/07 00:01:06;;;;;;;1.92;1.50;;;16.70;84.30;;;;;;5051764;28;20263;-57
2022/08/07 00:03:33;;;;;;;2.47;1.25;;;16.70;84.90;;;;;;5051865;28;20868;-57
2022/08/07 00:06:00;;;;;;;2.13;1.20;;;16.70;85.00;;;;;;5051777;28;20229;-57
2022/08/07 00:08:26;;;;;;;2.40;1.35;;;16.60;85.10;;;;;;5051099;28;20221;-58
2022/08/07 00:10:53;;;;;;;6.93;1.42;;;16.70;85.60;;;;;;5051951;28;20216;-57
2022/08/07 00:13:21;;;;;;;3.97;1.58;;;16.60;85.70;;;;;;5051870;28;20206;-58
2022/08/07 00:15:49;;;;;;;2.63;1.20;;;16.60;86.20;;;;;;5051835;28;20226;-58
2022/08/07 00:18:21;;;;;;;4.20;1.60;;;16.60;86.10;;;;;;5051321;28;20697;-58
2022/08/07 00:20:49;;;;;;;4.47;1.10;;;16.60;86.60;;;;;;5051638;28;20208;-57
2022/08/07 00:23:15;;;;;;;1.10;0.90;;;16.70;86.10;;;;;;5051438;28;20201;-57
2022/08/07 00:25:42;;;;;;;3.13;1.13;;;16.60;85.50;;;;;;5051573;28;20225;-57
2022/08/07 00:28:09;;;;;;;1.48;1.02;;;16.70;85.10;;;;;;5051367;28;20228;-58
2022/08/07 00:30:36;;;;;;;4.13;1.17;;;16.70;84.70;;;;;;5051735;28;20212;-57
2022/08/07 00:33:02;;;;;;;1.63;1.02;;;16.70;85.00;;;;;;5054974;28;20862;-57
2022/08/07 00:35:30;;;;;;;2.20;1.02;;;16.70;85.10;;;;;;5056546;28;20229;-57
2022/08/07 00:37:57;;;;;;;1.40;1.17;;;16.70;85.20;;;;;;5055964;28;20205;-58
2022/08/07 00:40:24;;;;;;;3.67;2.83;;;16.70;85.50;;;;;;5055427;28;20237;-57
2022/08/07 00:42:51;;;;;;;5.00;3.80;;;16.70;85.00;;;;;;5055297;28;20213;-58
2022/08/07 00:45:20;;;;;;;4.28;2.70;;;16.70;84.90;;;;;;5054995;28;20268;-57
2022/08/07 00:47:46;;;;;;;3.80;2.60;;;16.70;84.70;;;;;;5055226;28;20583;-57
2022/08/07 00:50:13;;;;;;;2.30;1.77;;;16.60;84.90;;;;;;5055060;28;20214;-57
2022/08/07 00:52:41;;;;;;;1.60;1.20;;;16.60;84.40;;;;;;5055144;28;20201;-56
2022/08/07 00:55:09;;;;;;;1.42;1.10;;;16.60;84.00;;;;;;5054819;28;20606;-57
2022/08/07 00:57:36;;;;;;;2.15;1.15;;;16.70;83.70;;;;;;5054509;28;20202;-57
2022/08/07 01:00:05;;;;;;;1.10;0.88;;;16.70;83.60;;;;;;5055073;28;20212;-57
2022/08/07 01:02:32;;;;;;;1.07;0.90;;;16.70;83.80;;;;;;5055062;28;20202;-57
2022/08/07 01:04:59;;;;;;;1.53;0.93;;;16.70;84.10;;;;;;5054962;28;20701;-59
2022/08/07 01:07:27;;;;;;;2.05;1.20;;;16.70;84.50;;;;;;5054696;28;20209;-57
2022/08/07 01:09:55;;;;;;;1.00;0.90;;;16.70;85.40;;;;;;5055181;28;20213;-57
2022/08/07 01:12:22;;;;;;;1.35;1.00;;;16.70;85.70;;;;;;5054629;28;20220;-56
2022/08/07 01:14:49;;;;;;;3.23;1.20;;;16.70;86.20;;;;;;5054060;28;20260;-56
2022/08/07 01:17:16;;;;;;;1.45;1.10;;;16.60;86.80;;;;;;5053801;28;20210;-56
2022/08/07 01:19:43;;;;;;;2.53;1.00;;;16.60;86.70;;;;;;5054277;28;20201;-56
2022/08/07 01:22:12;;;;;;;1.83;1.20;;;16.60;87.00;;;;;;5053990;28;20210;-57
2022/08/07 01:24:39;;;;;;;2.22;1.00;;;16.60;87.20;;;;;;5053875;28;20285;-57
2022/08/07 01:27:06;;;;;;;1.48;0.90;;;16.60;87.40;;;;;;5053729;28;20212;-57
2022/08/07 01:29:33;;;;;;;2.33;1.00;;;16.60;86.80;;;;;;5054631;28;20238;-56
2022/08/07 01:32:00;;;;;;;1.13;0.85;;;16.70;86.40;;;;;;5054019;28;20584;-57
2022/08/07 01:34:31;;;;;;;0.80;0.70;;;16.70;86.10;;;;;;5054150;28;20205;-57
2022/08/07 01:36:58;;;;;;;3.85;0.70;;;16.70;86.00;;;;;;5053466;28;20618;-56
2022/08/07 01:39:26;;;;;;;1.15;0.80;;;16.70;86.20;;;;;;5053773;28;20209;-57
2022/08/07 01:41:54;;;;;;;2.63;0.90;;;16.80;86.10;;;;;;5053762;28;20206;-55
2022/08/07 01:44:21;;;;;;;1.63;0.70;;;16.80;85.90;;;;;;5053465;28;20213;-55
2022/08/07 01:46:48;;;;;;;0.70;0.70;;;16.80;85.90;;;;;;5053082;28;20245;-55
2022/08/07 01:49:14;;;;;;;1.48;0.63;;;16.80;85.80;;;;;;5053466;28;20240;-56
2022/08/07 01:51:43;;;;;;;1.13;0.80;;;16.80;85.90;;;;;;5053467;28;20232;-55
2022/08/07 01:54:13;;;;;;;2.08;0.77;;;16.80;85.70;;;;;;5053297;28;20205;-55
2022/08/07 01:56:48;;;;;;;2.28;0.80;;;16.80;85.90;;;;;;5053122;28;20226;-55
2022/08/07 01:59:19;;;;;;;0.83;0.70;;;16.80;85.90;;;;;;5053470;28;20208;-54
2022/08/07 02:01:52;;;;;;;1.77;0.80;;;16.80;86.10;;;;;;5053585;28;20213;-55
2022/08/07 02:04:26;;;;;;;1.17;0.70;;;16.80;86.10;;;;;;5053436;28;20217;-56
2022/08/07 02:06:55;;;;;;;1.48;0.70;;;16.70;86.10;;;;;;5053101;28;20870;-56
2022/08/07 02:09:24;;;;;;;0.65;0.65;;;16.80;86.70;;;;;;5053375;28;20225;-55
2022/08/07 02:11:55;;;;;;;2.53;0.90;;;16.80;87.10;;;;;;5053454;28;20632;-56
2022/08/07 02:14:23;;;;;;;0.95;0.90;;;16.70;87.10;;;;;;5053237;28;20300;-56
2022/08/07 02:16:51;;;;;;;2.67;0.88;;;16.70;87.20;;;;;;5052945;28;20252;-56
2022/08/07 02:19:19;;;;;;;1.33;0.75;;;16.70;87.40;;;;;;5053123;28;20202;-56
2022/08/07 02:21:46;;;;;;;0.70;0.60;;;16.70;87.50;;;;;;5053107;28;20209;-56
2022/08/07 02:24:15;;;;;;;2.80;0.90;;;16.70;87.70;;;;;;5053509;28;20688;-56
2022/08/07 02:26:42;;;;;;;1.63;0.75;;;16.70;88.50;;;;;;5054219;28;20599;-57
2022/08/07 02:29:12;;;;;;;1.15;0.77;;;16.60;88.50;;;;;;5054166;28;20916;-56
2022/08/07 02:31:39;;;;;;;1.20;0.90;;;16.60;89.00;;;;;;5053989;28;20232;-56
2022/08/07 02:34:07;;;;;;;0.60;0.60;;;16.60;89.80;;;;;;5052946;28;20206;-56
2022/08/07 02:36:36;;;;;;;5.70;0.90;;;16.60;90.10;;;;;;5053008;28;20229;-56
2022/08/07 02:39:05;;;;;;;1.70;1.00;;;16.50;90.00;;;;;;5052666;28;20197;-56
2022/08/07 02:41:32;;;;;;;1.02;0.80;;;16.50;90.00;;;;;;5052937;28;20205;-56
2022/08/07 02:44:01;;;;;;;1.17;1.05;;;16.50;90.10;;;;;;5052753;28;20214;-55
2022/08/07 02:46:31;;;;;;;1.70;0.98;;;16.50;90.10;;;;;;5052485;28;20516;-56
2022/08/07 02:48:58;;;;;;;2.08;0.80;;;16.50;90.00;;;;;;5052776;28;20237;-57
2022/08/07 02:51:27;;;;;;;3.70;0.82;;;16.40;90.10;;;;;;5052802;28;20209;-56
2022/08/07 02:53:55;;;;;;;1.30;1.10;;;16.40;90.40;;;;;;5052720;28;20209;-56
2022/08/07 02:56:26;;;;;;;0.60;0.60;;;16.40;90.50;;;;;;5051920;28;20232;-56
2022/08/07 02:58:54;;;;;;;1.27;1.10;;;16.30;90.30;;;;;;5052208;28;20216;-56
2022/08/07 03:01:24;;;;;;;2.45;1.00;;;16.30;90.30;;;;;;5052220;28;20210;-56
2022/08/07 03:03:53;;;;;;;1.80;0.68;;;16.30;90.40;;;;;;5052730;28;20253;-56
2022/08/07 03:06:22;;;;;;;1.07;0.83;;;16.30;90.60;;;;;;5052262;28;20222;-56
2022/08/07 03:08:49;;;;;;;1.35;0.80;;;16.30;90.70;;;;;;5052020;28;20225;-57
2022/08/07 03:11:17;;;;;;;3.77;1.20;;;16.30;90.90;;;;;;5051751;28;20673;-56
2022/08/07 03:13:44;;;;;;;0.95;0.75;;;16.30;91.00;;;;;;5052204;28;20232;-56
2022/08/07 03:16:11;;;;;;;1.75;0.95;;;16.30;91.10;;;;;;5051868;28;20229;-57
2022/08/07 03:18:38;;;;;;;3.22;1.20;;;16.30;91.20;;;;;;5051945;28;20209;-56
2022/08/07 03:21:07;;;;;;;1.20;0.98;;;16.20;91.40;;;;;;5052307;28;20208;-56
2022/08/07 03:23:37;;;;;;;2.67;1.13;;;16.20;91.50;;;;;;5052136;28;20218;-56
2022/08/07 03:26:06;;;;;;;2.53;0.90;;;16.20;91.50;;;;;;5051884;28;20233;-56
2022/08/07 03:28:35;;;;;;;2.97;1.08;;;16.10;91.90;;;;;;5051715;28;20236;-56
2022/08/07 03:31:21;;;;;;;1.47;1.00;;;16.10;92.10;;;;;;5052184;28;20244;-57
2022/08/07 03:33:50;;;;;;;1.40;1.03;;;16.10;92.30;;;;;;5052192;28;20300;-55
2022/08/07 03:36:20;;;;;;;1.90;1.17;;;16.10;92.50;;;;;;5051417;28;20225;-55
2022/08/07 03:38:48;;;;;;;1.25;0.80;;;15.90;92.70;;;;;;5051416;28;20205;-56
2022/08/07 03:41:16;;;;;;;2.22;1.50;;;15.90;92.80;;;;;;5051728;28;20271;-56
2022/08/07 03:43:44;;;;;;;1.40;1.10;;;16.00;93.00;;;;;;5052027;28;20544;-55
2022/08/07 03:46:12;;;;;;;2.90;0.93;;;16.00;93.10;;;;;;5052622;28;20590;-58
2022/08/07 03:48:41;;;;;;;1.33;1.20;;;16.00;93.20;;;;;;5052124;28;20255;-58
2022/08/07 03:51:09;;;;;;;1.42;1.33;;;16.00;93.40;;;;;;5052396;28;20580;-57
2022/08/07 03:53:37;;;;;;;1.07;1.00;;;16.00;93.50;;;;;;5052172;28;20205;-58
2022/08/07 03:56:05;;;;;;;1.02;0.80;;;15.90;93.70;;;;;;5052154;28;20232;-58
2022/08/07 03:58:32;;;;;;;3.37;1.10;;;15.90;94.00;;;;;;5052135;28;20213;-58
2022/08/07 04:00:59;;;;;;;2.27;1.20;;;15.90;94.40;;;;;;5052461;28;20209;-58
2022/08/07 04:03:26;;;;;;;1.43;1.00;;;15.80;94.70;;;;;;5052244;28;20205;-58
2022/08/07 04:05:53;;;;;;;1.92;1.00;;;15.90;95.00;;;;;;5052471;28;20226;-58
2022/08/07 04:08:21;;;;;;;1.37;0.97;;;15.90;95.10;;;;;;5054887;28;20576;-58
2022/08/07 04:10:50;;;;;;;1.48;1.00;;;16.00;95.10;;;;;;5056209;28;20646;-58
2022/08/07 04:13:18;;;;;;;3.27;1.30;;;16.00;95.20;;;;;;5056357;28;20201;-58
2022/08/07 04:15:45;;;;;;;0.80;0.80;;;16.00;95.30;;;;;;5056250;28;20225;-59
2022/08/07 04:18:13;;;;;;;2.33;1.33;;;16.10;95.40;;;;;;5056627;28;20327;-58
2022/08/07 04:20:40;;;;;;;2.63;1.30;;;16.10;95.50;;;;;;5056549;28;20232;-57
2022/08/07 04:23:07;;;;;;;3.17;1.20;;;16.10;95.70;;;;;;5056601;28;20212;-58
2022/08/07 04:25:37;;;;;;;1.30;1.20;;;16.20;95.80;;;;;;5056113;28;20238;-58
2022/08/07 04:28:05;;;;;;;1.30;1.20;;;16.20;96.00;;;;;;5055761;28;20209;-58
2022/08/07 04:30:32;;;;;;;3.73;1.20;;;16.20;96.10;;;;;;5055718;28;20229;-58
2022/08/07 04:33:00;;;;;;;1.52;1.10;;;16.30;96.20;;;;;;5055631;28;20202;-59
2022/08/07 04:35:27;;;;;;;2.90;1.60;;;16.30;96.30;;;;;;5055438;28;20234;-58
2022/08/07 04:37:54;;;;;;;1.50;1.20;;;16.30;96.30;;;;;;5056037;28;20692;-58
2022/08/07 04:40:21;;;;;;;1.40;1.30;;;16.30;96.40;;;;;;5055532;28;20212;-58
2022/08/07 04:42:48;;;;;;;2.40;1.00;;;16.40;96.50;;;;;;5055395;28;20214;-59
2022/08/07 04:45:16;;;;;;;3.80;1.30;;;16.30;96.80;;;;;;5054852;28;20298;-58
2022/08/07 04:47:54;;;;;;;1.50;1.40;;;16.40;97.00;;;;;;5054795;28;20665;-58
2022/08/07 04:50:35;;;;;;;1.88;1.40;;;16.40;97.10;;;;;;5055336;28;20229;-59
2022/08/07 04:53:07;;;;;;;2.72;1.50;;;16.50;97.20;;;;;;5055722;28;20210;-58
2022/08/07 04:55:42;;;;;;;2.85;1.65;;;16.50;97.30;;;;;;5055223;28;20705;-58
2022/08/07 04:58:16;;;;;;;2.85;1.38;;;16.60;97.60;;;;;;5054881;28;20209;-58
2022/08/07 05:00:50;;;;;;;1.55;1.45;;;16.60;97.80;;;;;;5054808;28;20205;-58
2022/08/07 05:03:23;;;;;;;2.83;1.73;;;16.60;97.90;;;;;;5055156;28;20201;-58
2022/08/07 05:05:54;;;;;;;3.53;1.85;;;16.70;98.20;;;;;;5055133;28;20232;-57
2022/08/07 05:08:27;;;;;;;2.13;1.48;;;16.70;98.50;;;;;;5054794;28;20202;-58
2022/08/07 05:11:04;;;;;;;2.65;1.65;;;16.80;98.70;;;;;;5054799;28;20222;-58
2022/08/07 05:13:35;;;;;;;2.35;2.15;;;16.90;98.90;;;;;;5055042;28;20620;-58
2022/08/07 05:16:07;;;;;;;2.47;2.00;;;16.90;98.90;;;;;;5054758;28;20232;-58
2022/08/07 05:18:39;;;;;;;3.33;2.15;;;17.00;99.00;;;;;;5054184;28;20209;-59
2022/08/07 05:21:11;;;;;;;1.97;1.83;;;17.10;99.30;;;;;;5054441;28;20209;-58
2022/08/07 05:23:41;;;;;;;2.30;2.10;;;17.20;99.50;;;;;;5054520;28;20209;-58
2022/08/07 05:26:13;;;;;;;2.65;1.90;;;17.20;99.70;;;;;;5054446;28;20283;-58
2022/08/07 05:28:42;;;;;;;4.03;2.28;;;17.30;99.60;;;;;;5054092;28;20209;-58
2022/08/07 05:31:12;;;;;;;3.15;2.10;;;17.40;99.70;;;;;;5053920;28;20205;-58
2022/08/07 05:33:39;;;;;;;3.70;2.60;;;17.40;99.80;;;;;;5053182;28;20440;-58
2022/08/07 05:36:08;;;;;;;2.95;2.15;;;17.60;99.90;;;;;;5054073;28;20226;-58
2022/08/07 05:38:36;;;;;;;2.30;2.10;;;17.70;99.90;;;;;;5054106;28;20236;-58
2022/08/07 05:41:03;;;;;;;3.92;2.28;;;17.90;99.80;;;;;;5054140;28;20229;-57
2022/08/07 05:43:30;;;;;;;2.65;2.10;;;18.30;99.80;;;;;;5041347;28;20206;-59
2022/08/07 05:45:57;;;;;;;2.88;1.90;;;20.00;97.80;;;;;;5035242;28;20234;-63
2022/08/07 05:48:26;;;;;;;3.53;1.92;;;22.20;94.30;;;;;;5034545;28;20206;-64
2022/08/07 05:50:52;;;;;;;3.38;1.90;;;24.40;90.00;;;;;;5035267;28;20276;-62
2022/08/07 05:53:19;;;;;;;2.17;1.92;;;26.20;81.60;;;;;;5034716;28;20206;-62
2022/08/07 05:55:47;;;;;;;2.63;1.90;;;27.50;76.80;;;;;;5034176;28;20236;-63
2022/08/07 05:58:15;;;;;;;2.97;1.98;;;28.90;71.80;;;;;;5034419;28;20214;-62
2022/08/07 06:00:46;;;;;;;1.75;1.58;;;30.20;67.60;;;;;;5034387;28;20210;-62
2022/08/07 06:03:15;;;;;;;2.83;1.92;;;31.50;62.50;;;;;;5033959;28;20217;-60
2022/08/07 06:05:46;;;;;;;2.20;1.80;;;32.40;58.80;;;;;;5033720;28;20722;-62
2022/08/07 06:08:14;;;;;;;4.78;1.92;;;33.00;57.30;;;;;;5034921;28;20202;-60
2022/08/07 06:10:41;;;;;;;2.08;1.88;;;33.70;55.50;;;;;;5034791;28;20237;-60
2022/08/07 06:13:08;;;;;;;2.30;1.80;;;34.50;53.10;;;;;;5034830;28;20210;-60
2022/08/07 06:15:37;;;;;;;2.80;2.00;;;35.10;52.40;;;;;;5034464;28;20288;-60
2022/08/07 06:18:04;;;;;;;2.10;1.83;;;35.70;50.90;;;;;;5033084;28;20570;-61
2022/08/07 06:20:34;;;;;;;2.20;1.85;;;36.20;49.70;;;;;;5034029;28;20260;-61
2022/08/07 06:23:04;;;;;;;3.25;1.90;;;36.70;49.10;;;;;;5033911;28;20218;-61
2022/08/07 06:25:31;;;;;;;2.47;1.92;;;37.40;47.70;;;;;;5033491;28;20233;-63
2022/08/07 06:28:02;;;;;;;2.45;1.73;;;38.10;47.10;;;;;;5033017;28;20286;-61
2022/08/07 06:30:29;;;;;;;3.33;1.60;;;38.60;46.10;;;;;;5032200;28;20245;-68
2022/08/07 06:32:56;;;;;;;2.25;1.90;;;39.20;44.60;;;;;;5033607;28;20686;-61
2022/08/07 06:35:23;;;;;;;2.38;1.88;;;38.90;44.30;;;;;;5033492;28;20227;-61
2022/08/07 06:37:49;;;;;;;2.85;1.83;;;38.50;45.00;;;;;;5031645;28;20467;-62
2022/08/07 06:40:17;;;;;;;3.28;2.00;;;38.50;45.10;;;;;;5032002;28;20206;-60
2022/08/07 06:42:47;;;;;;;3.10;1.90;;;38.90;44.80;;;;;;5031885;28;20217;-62
2022/08/07 06:45:16;;;;;;;2.78;1.98;;;39.50;44.10;;;;;;5031694;28;20555;-60
2022/08/07 06:47:44;;;;;;;2.53;1.73;;;40.00;43.40;;;;;;5031978;28;20210;-60
2022/08/07 06:50:11;;;;;;;2.45;1.75;;;40.30;43.00;;;;;;5032178;28;20312;-63
2022/08/07 06:52:42;;;;;;;2.13;1.63;;;40.70;42.20;;;;;;5032059;28;20631;-59
2022/08/07 06:55:13;;;;;;;2.30;1.80;;;40.90;42.10;;;;;;5031428;28;20279;-61
2022/08/07 06:57:43;;;;;;;4.82;1.88;;;41.40;41.30;;;;;;5031702;28;20210;-61
2022/08/07 07:00:11;;;;;;;2.33;1.50;;;41.80;40.40;;;;;;5031696;28;20685;-61
2022/08/07 07:02:41;;;;;;;1.33;1.20;;;42.20;39.50;;;;;;5031748;28;20212;-60
2022/08/07 07:05:09;;;;;;;1.58;1.40;;;42.40;39.20;;;;;;5031473;28;20237;-61
2022/08/07 07:07:36;;;;;;;2.13;1.30;;;41.90;38.50;;;;;;5031693;28;20206;-61
2022/08/07 07:10:03;;;;;;;1.30;1.20;;;41.10;39.40;;;;;;5032359;28;20226;-60
2022/08/07 07:12:38;;;;;;;2.78;2.00;;;40.20;40.00;;;;;;5032022;28;20210;-60
2022/08/07 07:15:09;;;;;;;1.70;1.50;;;39.40;40.60;;;;;;5031593;28;20232;-60
2022/08/07 07:17:41;;;;;;;1.60;1.15;;;39.40;40.30;;;;;;5031848;28;20209;-60
2022/08/07 07:20:12;;;;;;;1.65;1.20;;;39.70;39.70;;;;;;5031554;28;20206;-60
2022/08/07 07:22:41;;;;;;;1.50;0.85;;;39.30;39.90;;;;;;5031923;28;20505;-59
2022/08/07 07:25:10;;;;;;;2.65;1.05;;;39.00;39.60;;;;;;5031715;28;20599;-60
2022/08/07 07:27:42;;;;;;;2.33;1.08;;;38.10;40.50;;;;;;5022373;28;20213;-62
2022/08/07 07:30:12;;;;;;;1.20;0.90;;;37.30;41.50;;;;;;5024170;28;20228;-61
2022/08/07 07:32:41;;;;;;;2.60;0.85;;;36.80;41.50;;;;;;5031456;28;20274;-60
2022/08/07 07:35:11;;;;;;;1.40;1.20;;;36.80;41.40;;;;;;5012079;28;20231;-60
2022/08/07 07:37:42;;;;;;;4.15;1.00;;;37.00;41.50;;;;;;5013733;28;20384;-60
2022/08/07 07:40:15;;;;;;;1.15;0.70;;;37.00;40.70;;;;;;5013762;28;20667;-62
2022/08/07 07:42:44;;;;;;;1.90;0.90;;;36.90;40.60;;;;;;5016777;28;20217;-61
2022/08/07 07:45:14;;;;;;;1.90;0.93;;;37.20;39.90;;;;;;5017010;28;20238;-61
2022/08/07 07:47:44;;;;;;;1.38;0.70;;;37.10;39.90;;;;;;5017770;28;20242;-61
2022/08/07 07:50:13;;;;;;;1.25;0.75;;;37.30;39.60;;;;;;5017752;28;20218;-61
2022/08/07 07:52:42;;;;;;;1.83;1.08;;;37.60;39.00;;;;;;5017819;28;20217;-59
2022/08/07 07:55:10;;;;;;;1.50;0.80;;;37.50;38.90;;;;;;5017643;28;20238;-60
2022/08/07 07:57:39;;;;;;;1.30;1.00;;;37.20;39.40;;;;;;5017285;28;20207;-61
2022/08/07 08:00:08;;;;;;;0.88;0.80;;;36.70;39.80;;;;;;5017905;28;20203;-60
2022/08/07 08:02:38;;;;;;;2.67;0.98;;;36.30;39.30;;;;;;5017469;28;20293;-61
2022/08/07 08:05:07;;;;;;;1.85;0.80;;;36.20;39.40;;;;;;5018032;28;20290;-62
2022/08/07 08:07:36;;;;;;;2.63;0.70;;;36.30;39.30;;;;;;5017355;28;20620;-59
2022/08/07 08:10:04;;;;;;;1.85;1.17;;;36.60;38.30;;;;;;5019181;28;20230;-62
2022/08/07 08:12:32;;;;;;;5.00;3.17;;;36.70;38.40;;;;;;5018660;28;20748;-62
2022/08/07 08:15:00;;;;;;;1.80;0.73;;;36.50;38.60;;;;;;5018565;28;20234;-62
2022/08/07 08:17:29;;;;;;;6.57;0.85;;;36.10;38.40;;;;;;5019038;28;20238;-62
2022/08/07 08:20:02;;;;;;;1.35;1.05;;;36.40;38.70;;;;;;5019340;28;20213;-62
2022/08/07 08:28:03;;;;;;;1.08;0.98;;;35.90;38.60;;;;;;5018161;28;20201;-59
2022/08/07 08:30:32;;;;;;;1.85;0.75;;;36.20;38.50;;;;;;5017572;28;20226;-61
2022/08/07 08:33:03;;;;;;;4.22;0.60;;;35.70;37.00;;;;;;5018054;28;20241;-60
2022/08/07 08:35:34;;;;;;;2.97;0.60;;;34.80;36.60;;;;;;5018084;28;20265;-61
2022/08/07 08:38:04;;;;;;;1.08;0.80;;;34.10;38.20;;;;;;5017800;28;20349;-61
2022/08/07 08:40:35;;;;;;;2.10;0.60;;;32.80;40.40;;;;;;5018938;28;20697;-61
2022/08/07 08:43:13;;;;;;;0.70;0.70;;;31.50;41.80;;;;;;5018021;28;20269;-61
2022/08/07 08:45:46;;;;;;;1.10;0.95;;;30.00;44.50;;;;;;5017759;28;20248;-61
2022/08/07 08:48:22;;;;;;;2.75;0.70;;;28.60;47.00;;;;;;5018484;28;20222;-61
2022/08/07 08:50:55;;;;;;;4.03;0.90;;;27.70;47.80;;;;;;5017773;28;20219;-60
2022/08/07 08:53:30;;;;;;;1.50;1.15;;;26.90;48.50;;;;;;5015992;28;20555;-61
2022/08/07 08:56:01;;;;;;;4.00;0.70;;;26.50;50.40;;;;;;5016582;28;20237;-61
2022/08/07 08:58:35;;;;;;;3.38;0.98;;;26.20;49.40;;;;;;5015299;28;20691;-61
2022/08/07 09:01:10;;;;;;;1.13;0.70;;;25.80;50.20;;;;;;5016281;28;20667;-61
2022/08/07 09:03:44;;;;;;;2.78;0.60;;;25.50;51.20;;;;;;5016195;28;20697;-61
2022/08/07 09:06:35;;;;;;;1.48;0.80;;;25.50;51.50;;;;;;5015296;28;20223;-61
2022/08/07 09:09:10;;;;;;;0.82;0.68;;;25.30;52.00;;;;;;5016034;28;20211;-61
2022/08/07 09:11:45;;;;;;;1.50;0.90;;;25.30;51.90;;;;;;5016051;28;20226;-61
2022/08/07 09:14:16;;;;;;;1.75;0.57;;;25.20;52.30;;;;;;5016148;28;20627;-60
2022/08/07 09:16:54;;;;;;;2.17;1.00;;;25.20;51.10;;;;;;5015827;28;20230;-61
2022/08/07 09:19:28;;;;;;;3.05;0.57;;;25.20;51.40;;;;;;5016036;28;20274;-61
2022/08/07 09:22:10;;;;;;;0.90;0.50;;;25.10;50.60;;;;;;5016182;28;20197;-60
2022/08/07 09:24:47;;;;;;;1.55;0.90;;;25.20;49.80;;;;;;5016014;28;20241;-60
2022/08/07 09:27:24;;;;;;;0.65;0.50;;;25.10;51.10;;;;;;5016061;28;20207;-61
2022/08/07 09:30:00;;;;;;;4.35;0.80;;;25.00;50.00;;;;;;5015913;28;20694;-60
2022/08/07 09:32:39;;;;;;;1.45;0.68;;;25.00;50.40;;;;;;5016291;28;20211;-61
2022/08/07 09:35:26;;;;;;;0.70;0.50;;;25.10;50.20;;;;;;5015630;28;20238;-59
2022/08/07 09:38:02;;;;;;;0.75;0.50;;;25.00;49.50;;;;;;5015772;28;20210;-59
2022/08/07 09:40:37;;;;;;;3.65;0.82;;;25.00;51.70;;;;;;5015669;28;20206;-60
2022/08/07 09:43:19;;;;;;;1.27;0.65;;;25.00;50.10;;;;;;5015801;28;20194;-60
2022/08/07 09:45:57;;;;;;;0.30;0.30;;;25.00;49.50;;;;;;5042518;22;20240;-55
2022/08/07 09:48:37;;;;;;;1.23;0.77;;;25.10;48.90;;;;;;5044832;28;20204;-57
2022/08/07 09:51:17;;;;;;;0.75;0.50;;;25.20;49.70;;;;;;5053386;28;20233;-55
2022/08/07 09:53:47;;;;;;;1.98;0.45;;;25.30;49.20;;;;;;5053125;28;20583;-57
2022/08/07 09:56:39;;;;;;;1.23;0.60;;;25.40;48.20;;;;;;5053324;28;20217;-55
2022/08/07 09:59:22;;;;;;;1.60;0.60;;;25.50;48.40;;;;;;5053083;28;20330;-56
2022/08/07 10:02:04;;;;;;;1.52;0.80;;;25.40;48.40;;;;;;5052804;28;20807;-56
2022/08/07 10:04:46;;;;;;;1.55;0.50;;;25.40;49.40;;;;;;5052018;28;20672;-56
2022/08/07 10:07:30;;;;;;;0.93;0.40;;;25.50;49.30;;;;;;5053081;28;20233;-55
2022/08/07 10:10:20;;;;;;;2.60;0.70;;;25.50;48.30;;;;;;5052988;28;20638;-56
2022/08/07 10:13:05;;;;;;;1.02;0.50;;;25.60;49.50;;;;;;5052783;28;20685;-56
2022/08/07 10:16:01;;;;;;;0.63;0.47;;;25.70;48.00;;;;;;5052871;28;20264;-56
2022/08/07 10:18:59;;;;;;;1.77;0.60;;;25.90;47.60;;;;;;5052429;28;20213;-55
2022/08/07 10:21:40;;;;;;;0.60;0.60;;;26.00;47.90;;;;;;5052873;28;20237;-56
2022/08/07 10:24:35;;;;;;;1.45;0.70;;;26.10;47.50;;;;;;5052812;28;20210;-60
2022/08/07 10:27:19;;;;;;;1.38;0.52;;;26.20;48.50;;;;;;5052611;28;20650;-56
2022/08/07 10:30:03;;;;;;;2.35;0.52;;;26.40;46.90;;;;;;5052674;28;20210;-57
2022/08/07 10:32:56;;;;;;;1.90;0.47;;;26.40;46.70;;;;;;5052738;28;20607;-56
2022/08/07 10:35:30;;;;;;;0.50;0.50;;;26.30;47.40;;;;;;5052780;28;20735;-56
2022/08/07 10:38:08;;;;;;;1.60;0.40;;;26.30;46.60;;;;;;5052157;28;20213;-56
2022/08/07 10:40:41;;;;;;;2.03;0.60;;;26.30;46.40;;;;;;5052531;28;20202;-56
2022/08/07 10:43:15;;;;;;;5.70;0.70;;;26.30;45.90;;;;;;5051310;28;20213;-58
2022/08/07 10:45:47;;;;;;;1.42;0.68;;;26.20;46.70;;;;;;5051915;28;20234;-56
2022/08/07 10:48:26;;;;;;;0.63;0.50;;;26.30;46.30;;;;;;5051576;28;20202;-55
2022/08/07 10:50:56;;;;;;;1.20;0.60;;;26.40;46.00;;;;;;5052287;28;20229;-55
2022/08/07 10:53:28;;;;;;;0.55;0.40;;;26.40;46.10;;;;;;5052394;28;20206;-56
2022/08/07 10:56:03;;;;;;;1.58;0.50;;;26.60;46.00;;;;;;5052154;28;20225;-58
2022/08/07 10:58:46;;;;;;;1.25;0.70;;;26.60;45.30;;;;;;5051899;28;20296;-55
2022/08/07 11:01:29;;;;;;;1.00;0.32;;;26.60;47.20;;;;;;5051966;28;20300;-56
2022/08/07 11:04:02;;;;;;;0.98;0.60;;;26.60;47.20;;;;;;5052088;28;20236;-55
2022/08/07 11:06:40;;;;;;;1.55;0.77;;;26.60;46.50;;;;;;5052080;28;20312;-57
2022/08/07 11:09:13;;;;;;;1.10;0.40;;;26.70;46.50;;;;;;5051593;28;20215;-56
2022/08/07 11:11:45;;;;;;;0.50;0.50;;;26.90;46.70;;;;;;5051673;28;20747;-55
2022/08/07 11:14:20;;;;;;;0.82;0.68;;;26.90;46.70;;;;;;5052055;28;20213;-56
2022/08/07 11:16:51;;;;;;;2.22;0.90;;;26.90;47.30;;;;;;5051406;28;20228;-58
2022/08/07 11:19:24;;;;;;;0.93;0.45;;;27.00;47.90;;;;;;5051632;28;20213;-56
2022/08/07 11:22:01;;;;;;;0.80;0.60;;;27.00;46.80;;;;;;5051972;28;20206;-58
2022/08/07 11:24:37;;;;;;;1.10;0.50;;;27.10;46.10;;;;;;5052116;28;20213;-56
2022/08/07 11:27:12;;;;;;;1.27;0.60;;;27.10;46.40;;;;;;5051656;28;20231;-57
2022/08/07 11:29:46;;;;;;;0.90;0.77;;;27.20;46.80;;;;;;5051411;28;20292;-56
2022/08/07 11:32:17;;;;;;;1.15;0.73;;;27.20;47.50;;;;;;5051713;28;20664;-58
2022/08/07 11:34:48;;;;;;;1.65;0.55;;;27.30;45.50;;;;;;5052177;28;20209;-56
2022/08/07 11:37:32;;;;;;;0.65;0.57;;;27.40;45.50;;;;;;5051767;28;20589;-56
2022/08/07 11:40:10;;;;;;;0.90;0.52;;;27.50;45.00;;;;;;5051407;28;20562;-58
2022/08/07 11:42:51;;;;;;;0.57;0.50;;;27.60;45.30;;;;;;5052273;28;20289;-58
2022/08/07 11:45:28;;;;;;;2.47;0.60;;;27.60;45.30;;;;;;5052094;28;20248;-57
2022/08/07 11:48:16;;;;;;;3.40;0.65;;;27.70;45.50;;;;;;5051788;28;20202;-56
2022/08/07 11:50:53;;;;;;;1.27;0.70;;;27.70;45.30;;;;;;5051677;28;20368;-56
2022/08/07 11:53:34;;;;;;;1.23;0.77;;;27.80;45.30;;;;;;5052252;28;20216;-56
2022/08/07 11:56:14;;;;;;;2.13;0.50;;;27.80;45.00;;;;;;5051920;28;20274;-57
2022/08/07 11:59:00;;;;;;;1.30;0.70;;;27.80;45.80;;;;;;5051572;28;20726;-56
2022/08/07 12:01:46;;;;;;;0.55;0.55;;;27.90;44.70;;;;;;5051561;28;20209;-57
2022/08/07 12:04:42;;;;;;;0.90;0.70;;;28.10;44.70;;;;;;5051571;28;20209;-56
2022/08/07 12:07:17;;;;;;;0.93;0.70;;;28.20;45.60;;;;;;5051564;28;20237;-57
2022/08/07 12:09:49;;;;;;;0.77;0.50;;;28.50;45.00;;;;;;5051058;28;20208;-57
2022/08/07 12:12:19;;;;;;;0.90;0.80;;;28.80;44.40;;;;;;5051762;28;20229;-55
2022/08/07 12:14:49;;;;;;;0.57;0.40;;;28.80;44.90;;;;;;5051342;28;20209;-56
2022/08/07 12:17:19;;;;;;;1.30;0.52;;;28.80;44.20;;;;;;5051405;28;20637;-56
2022/08/07 12:19:54;;;;;;;1.33;0.68;;;28.70;44.00;;;;;;5050932;28;20301;-57
2022/08/07 12:22:29;;;;;;;1.80;0.55;;;28.80;43.70;;;;;;5051398;28;20197;-56
2022/08/07 12:27:49;;;;;;;1.48;0.65;;;28.80;43.70;;;;;;5051284;28;20201;-58
2022/08/07 12:30:18;;;;;;;1.92;0.70;;;28.60;44.80;;;;;;5054697;28;20783;-56
2022/08/07 12:32:58;;;;;;;0.55;0.55;;;28.60;45.90;;;;;;5055057;28;20316;-56
2022/08/07 12:35:27;;;;;;;0.45;0.38;;;28.80;45.50;;;;;;5055120;28;20549;-55
2022/08/07 12:37:55;;;;;;;0.77;0.60;;;29.00;44.00;;;;;;5054651;28;20201;-56
2022/08/07 12:40:26;;;;;;;0.88;0.70;;;29.10;43.60;;;;;;5055325;28;20216;-56
2022/08/07 12:42:54;;;;;;;0.55;0.50;;;29.10;44.30;;;;;;5054480;28;20209;-55
2022/08/07 12:45:25;;;;;;;1.35;0.50;;;29.10;43.70;;;;;;5054644;28;20260;-57
2022/08/07 12:48:07;;;;;;;0.60;0.50;;;29.10;43.90;;;;;;5054323;28;20212;-55
2022/08/07 12:50:38;;;;;;;2.50;0.65;;;29.20;44.20;;;;;;5054767;28;20224;-56
2022/08/07 12:53:13;;;;;;;1.02;0.70;;;29.20;43.70;;;;;;5054324;28;20229;-55
2022/08/07 12:55:45;;;;;;;0.70;0.63;;;29.30;42.80;;;;;;5054622;28;20233;-55
2022/08/07 12:58:16;;;;;;;2.00;0.63;;;29.10;42.50;;;;;;5054595;28;20213;-56
2022/08/07 13:00:54;;;;;;;0.65;0.40;;;29.00;42.70;;;;;;5054301;28;20205;-55
2022/08/07 13:03:49;;;;;;;1.88;0.70;;;29.10;42.50;;;;;;5054281;28;20746;-56
2022/08/07 13:06:26;;;;;;;1.23;0.73;;;29.20;42.60;;;;;;5054434;28;20229;-57
2022/08/07 13:09:01;;;;;;;1.00;0.65;;;29.30;42.50;;;;;;5054169;28;20683;-55
2022/08/07 13:11:41;;;;;;;2.63;0.47;;;29.20;43.00;;;;;;5054159;28;20276;-56
2022/08/07 13:14:21;;;;;;;1.23;0.60;;;29.20;43.40;;;;;;5054482;28;20309;-55
2022/08/07 13:16:55;;;;;;;1.77;0.70;;;29.30;42.60;;;;;;5054346;28;20256;-58
2022/08/07 13:19:33;;;;;;;0.50;0.50;;;29.40;42.20;;;;;;5054084;28;20252;-57